Time;durP1;ratioP1;P1;durP2;ratioP2;P2;SDS_P1;SDS_P2;PMS_P1;PMS_P2;Temp;Humidity;BMP_temperature;BMP_pressure;BME280_temperature;BME280_humidity;BME280_pressure;Samples;Min_cycle;Max_cycle;Signal;HPM_P1;HPM_P2
2023/02/23 00:02:05;;;;;;;17.23;8.30;;;10.10;83.50;;;;;;4971545;28;89972;-73
2023/02/23 00:04:32;;;;;;;19.08;8.25;;;10.10;83.80;;;;;;4976821;28;87445;-71
2023/02/23 00:06:57;;;;;;;16.33;8.20;;;10.10;83.70;;;;;;4977153;28;88827;-71
2023/02/23 00:09:23;;;;;;;17.45;8.50;;;10.10;83.80;;;;;;4972489;28;86846;-72
2023/02/23 00:11:56;;;;;;;24.00;9.20;;;10.10;85.20;;;;;;4971064;28;87660;-71
2023/02/23 00:14:26;;;;;;;18.35;8.07;;;10.00;86.10;;;;;;4972530;28;88998;-72
2023/02/23 00:16:53;;;;;;;19.50;8.60;;;10.00;85.80;;;;;;4972287;28;88502;-73
2023/02/23 00:19:19;;;;;;;18.55;8.60;;;10.00;85.90;;;;;;4969578;28;89970;-74
2023/02/23 00:21:45;;;;;;;18.50;8.32;;;10.00;86.90;;;;;;4987809;28;87922;-73
2023/02/23 00:24:14;;;;;;;18.15;9.02;;;10.00;87.50;;;;;;4972660;28;88070;-73
2023/02/23 00:26:44;;;;;;;16.38;8.68;;;10.00;87.30;;;;;;4967082;28;87663;-73
2023/02/23 00:29:19;;;;;;;21.55;9.23;;;10.00;87.30;;;;;;4977478;28;88976;-73
2023/02/23 00:31:46;;;;;;;19.90;9.27;;;10.00;87.50;;;;;;4968351;28;87970;-73
2023/02/23 00:34:14;;;;;;;22.88;9.05;;;10.00;89.00;;;;;;4973975;28;87390;-71
2023/02/23 00:36:41;;;;;;;19.25;9.80;;;10.00;89.80;;;;;;4967395;28;87267;-72
2023/02/23 00:39:20;;;;;;;23.27;9.50;;;9.90;90.00;;;;;;4976396;28;88973;-71
2023/02/23 00:41:47;;;;;;;21.80;9.85;;;9.90;90.30;;;;;;4991874;28;89590;-72
2023/02/23 00:44:14;;;;;;;21.92;10.00;;;9.90;90.40;;;;;;4970264;28;88927;-72
2023/02/23 00:46:41;;;;;;;24.27;9.48;;;9.90;90.90;;;;;;4973192;28;87583;-71
2023/02/23 00:49:10;;;;;;;25.80;10.60;;;9.80;91.20;;;;;;4985985;28;87401;-72
2023/02/23 00:51:36;;;;;;;28.13;10.05;;;9.80;91.20;;;;;;4969323;28;90096;-72
2023/02/23 00:54:02;;;;;;;23.98;10.10;;;9.80;91.30;;;;;;4973194;28;88405;-72
2023/02/23 00:56:28;;;;;;;25.73;10.75;;;9.80;91.60;;;;;;4973852;28;87921;-73
2023/02/23 00:58:55;;;;;;;23.45;11.70;;;9.80;91.70;;;;;;4976168;28;86878;-72
2023/02/23 01:01:21;;;;;;;25.90;11.13;;;9.80;92.20;;;;;;4976067;28;87623;-72
2023/02/23 01:03:46;;;;;;;25.85;11.45;;;9.80;92.10;;;;;;4969138;28;88533;-73
2023/02/23 01:06:14;;;;;;;23.50;11.57;;;9.90;92.50;;;;;;4969308;28;90026;-73
2023/02/23 01:08:42;;;;;;;22.40;11.18;;;9.90;92.50;;;;;;4972832;28;89063;-72
2023/02/23 01:11:12;;;;;;;23.77;11.38;;;9.90;92.70;;;;;;4974431;28;88107;-72
2023/02/23 01:13:39;;;;;;;24.40;10.70;;;9.90;92.80;;;;;;4970089;28;89166;-72
2023/02/23 01:16:06;;;;;;;27.27;12.05;;;9.80;93.00;;;;;;4973192;28;87339;-71
2023/02/23 01:18:36;;;;;;;29.85;10.30;;;9.80;93.30;;;;;;4973584;28;87731;-72
2023/02/23 01:21:04;;;;;;;21.05;10.38;;;9.80;93.70;;;;;;4974505;28;90430;-73
2023/02/23 01:23:29;;;;;;;22.60;10.23;;;9.80;93.90;;;;;;4969981;28;87884;-72
2023/02/23 01:25:55;;;;;;;26.27;12.05;;;9.80;94.00;;;;;;4975783;28;87542;-72
2023/02/23 01:28:22;;;;;;;26.88;12.20;;;9.80;94.60;;;;;;4989556;28;87425;-73
2023/02/23 01:30:48;;;;;;;24.50;11.10;;;9.80;94.70;;;;;;4971538;28;89201;-73
2023/02/23 01:33:14;;;;;;;22.98;10.63;;;9.80;94.90;;;;;;4970005;28;88855;-73
2023/02/23 01:35:39;;;;;;;27.08;12.40;;;9.80;94.50;;;;;;4976867;28;87506;-71
2023/02/23 01:38:05;;;;;;;24.20;11.43;;;9.90;94.40;;;;;;4976925;28;87509;-72
2023/02/23 01:40:32;;;;;;;27.40;11.98;;;9.90;95.00;;;;;;4969172;28;89627;-71
2023/02/23 01:43:24;;;;;;;25.77;12.20;;;9.90;95.00;;;;;;4967522;28;88883;-71
2023/02/23 01:45:54;;;;;;;23.23;11.75;;;9.90;95.10;;;;;;4976655;28;87389;-71
2023/02/23 01:48:38;;;;;;;25.95;10.77;;;9.90;95.10;;;;;;4979467;28;86514;-73
2023/02/23 01:51:17;;;;;;;22.75;12.00;;;9.90;95.00;;;;;;4967223;28;89773;-71
2023/02/23 01:54:08;;;;;;;26.55;11.60;;;9.90;95.30;;;;;;4978128;28;87978;-71
2023/02/23 01:56:43;;;;;;;23.17;10.98;;;9.90;95.70;;;;;;4969498;28;89071;-72
2023/02/23 01:59:11;;;;;;;24.40;11.27;;;9.90;95.50;;;;;;4972815;28;87303;-70
2023/02/23 02:01:41;;;;;;;26.05;11.27;;;10.00;95.40;;;;;;4972493;28;88695;-71
2023/02/23 02:04:15;;;;;;;24.15;11.43;;;10.00;95.30;;;;;;4971257;28;87942;-73
2023/02/23 02:06:43;;;;;;;29.10;12.15;;;10.00;95.40;;;;;;4974108;28;87784;-71
2023/02/23 02:09:16;;;;;;;23.58;10.23;;;10.00;95.50;;;;;;4976473;28;87731;-74
2023/02/23 02:11:45;;;;;;;27.05;12.00;;;10.00;95.50;;;;;;4967805;28;88647;-71
2023/02/23 02:14:19;;;;;;;29.27;12.30;;;10.00;95.50;;;;;;4966139;28;87929;-72
2023/02/23 02:17:11;;;;;;;25.27;11.80;;;10.00;95.70;;;;;;4968960;28;87466;-72
2023/02/23 02:19:52;;;;;;;29.42;12.20;;;10.00;96.10;;;;;;4970275;28;87570;-73
2023/02/23 02:22:38;;;;;;;28.00;12.13;;;10.00;96.00;;;;;;4971687;28;88478;-73
2023/02/23 02:25:40;;;;;;;27.02;12.10;;;10.00;96.10;;;;;;4969053;28;89219;-73
2023/02/23 02:28:11;;;;;;;29.05;12.45;;;9.90;96.50;;;;;;4965936;28;88599;-73
2023/02/23 02:30:46;;;;;;;22.38;11.82;;;9.90;96.70;;;;;;4971066;28;88701;-73
2023/02/23 02:33:57;;;;;;;29.23;12.38;;;9.90;97.00;;;;;;4974276;28;87193;-73
2023/02/23 02:36:41;;;;;;;25.15;10.75;;;9.90;96.90;;;;;;4969941;28;88137;-72
2023/02/23 02:39:37;;;;;;;25.90;11.23;;;10.00;96.70;;;;;;4964433;28;87581;-73
2023/02/23 02:42:03;;;;;;;;;;;10.00;96.70;;;;;;4973828;28;87288;-71
2023/02/23 02:44:32;;;;;;;30.38;12.48;;;9.90;97.30;;;;;;4971795;28;87949;-71
2023/02/23 02:47:06;;;;;;;27.05;11.13;;;9.90;97.50;;;;;;4975623;28;87429;-70
2023/02/23 02:49:41;;;;;;;31.00;13.45;;;9.80;97.90;;;;;;4968114;28;90017;-71
2023/02/23 02:52:24;;;;;;;23.67;11.90;;;9.80;98.10;;;;;;4969034;28;87691;-73
2023/02/23 02:54:55;;;;;;;28.73;12.77;;;9.70;98.40;;;;;;4967341;28;88661;-72
2023/02/23 02:57:24;;;;;;;26.52;13.07;;;9.70;98.50;;;;;;4980142;28;87889;-73
2023/02/23 04:19:29;;;;;;;30.55;14.35;;;9.20;99.90;;;;;;4986791;28;88475;-72
2023/02/23 04:21:55;;;;;;;27.67;14.23;;;9.20;99.90;;;;;;4980075;28;87315;-72
2023/02/23 04:24:20;;;;;;;32.45;13.98;;;9.20;99.90;;;;;;4979939;28;87094;-73
2023/02/23 04:26:46;;;;;;;34.90;14.82;;;9.20;99.90;;;;;;4972981;28;88762;-70
2023/02/23 04:29:12;;;;;;;30.15;15.10;;;9.30;99.90;;;;;;4978183;28;87172;-72
2023/02/23 04:31:38;;;;;;;30.58;14.32;;;9.30;99.90;;;;;;4973793;28;87480;-71
2023/02/23 04:34:04;;;;;;;30.25;14.73;;;9.30;99.90;;;;;;4972145;28;86591;-70
2023/02/23 04:36:29;;;;;;;33.08;16.08;;;9.30;99.90;;;;;;4967906;28;88059;-70
2023/02/23 04:38:55;;;;;;;30.95;14.90;;;9.30;99.90;;;;;;4967008;28;87415;-72
2023/02/23 04:41:21;;;;;;;32.40;15.60;;;9.20;99.90;;;;;;4977962;28;89773;-73
2023/02/23 04:43:47;;;;;;;31.88;15.73;;;9.20;99.90;;;;;;4978522;28;89187;-72
2023/02/23 04:46:13;;;;;;;36.08;16.25;;;9.20;99.90;;;;;;4974009;28;88620;-72
2023/02/23 04:48:39;;;;;;;35.53;15.77;;;9.20;99.90;;;;;;4973126;28;87590;-72
2023/02/23 04:51:05;;;;;;;36.83;16.58;;;9.20;99.90;;;;;;4976665;28;87366;-73
2023/02/23 04:53:30;;;;;;;32.03;16.10;;;9.20;99.90;;;;;;4980182;28;87578;-70
2023/02/23 04:55:56;;;;;;;33.00;15.85;;;9.30;99.90;;;;;;4978258;28;87951;-71
2023/02/23 04:58:22;;;;;;;32.97;15.45;;;9.30;99.90;;;;;;4975263;28;88585;-70
2023/02/23 05:00:48;;;;;;;34.63;16.17;;;9.40;99.90;;;;;;4970774;28;87346;-69
2023/02/23 05:03:16;;;;;;;34.97;16.55;;;9.40;99.90;;;;;;4974850;28;87696;-72
2023/02/23 05:05:42;;;;;;;32.55;15.68;;;9.40;99.90;;;;;;4986578;28;89002;-71
2023/02/23 05:08:09;;;;;;;34.92;15.02;;;9.40;99.90;;;;;;4992193;28;88150;-72
2023/02/23 05:10:35;;;;;;;34.88;15.73;;;9.50;99.90;;;;;;4985024;28;87567;-72
2023/02/23 05:13:01;;;;;;;32.10;15.45;;;9.50;99.90;;;;;;4988592;28;87435;-71
2023/02/23 05:15:27;;;;;;;34.05;15.70;;;9.50;99.90;;;;;;4991681;28;88109;-72
2023/02/23 05:17:54;;;;;;;29.90;14.85;;;9.50;99.90;;;;;;4997312;28;87540;-71
2023/02/23 05:20:20;;;;;;;32.17;14.75;;;9.50;99.90;;;;;;4979328;28;86980;-70
2023/02/23 05:22:46;;;;;;;39.67;16.63;;;9.50;99.90;;;;;;4979418;28;86921;-70
2023/02/23 05:25:12;;;;;;;33.80;15.57;;;9.50;99.90;;;;;;4978131;28;88215;-71
2023/02/23 05:27:39;;;;;;;33.67;14.95;;;9.50;99.90;;;;;;4992356;28;88415;-71
2023/02/23 05:30:09;;;;;;;33.42;15.32;;;9.50;99.90;;;;;;4998233;28;88475;-72
2023/02/23 05:32:35;;;;;;;34.13;16.00;;;9.50;99.90;;;;;;4996521;28;87747;-70
2023/02/23 05:35:01;;;;;;;39.25;16.80;;;9.50;99.90;;;;;;4984007;28;88141;-71
2023/02/23 05:37:27;;;;;;;32.13;16.45;;;9.60;99.90;;;;;;4993870;28;87406;-72
2023/02/23 05:39:52;;;;;;;37.50;15.70;;;9.60;99.90;;;;;;4995183;28;87490;-72
2023/02/23 05:42:18;;;;;;;39.30;16.30;;;9.50;99.90;;;;;;4998860;28;87447;-72
2023/02/23 05:44:44;;;;;;;34.53;16.17;;;9.50;99.90;;;;;;4978572;28;88450;-71
2023/02/23 05:47:09;;;;;;;32.78;15.98;;;9.50;99.90;;;;;;4977130;28;88218;-71
2023/02/23 05:49:35;;;;;;;33.72;16.38;;;9.50;99.90;;;;;;4977548;28;87305;-71
2023/02/23 05:52:01;;;;;;;35.13;15.90;;;9.50;99.90;;;;;;4978732;28;87395;-72
2023/02/23 05:54:27;;;;;;;32.05;15.00;;;9.50;99.90;;;;;;4994387;28;89633;-71
2023/02/23 05:56:53;;;;;;;34.45;16.10;;;9.50;99.90;;;;;;4977283;28;87871;-72
2023/02/23 05:59:18;;;;;;;37.95;15.85;;;9.50;99.90;;;;;;4977834;28;87438;-73
2023/02/23 06:01:44;;;;;;;37.40;16.25;;;9.50;99.90;;;;;;4990093;28;87338;-74
2023/02/23 06:04:10;;;;;;;38.20;15.68;;;9.50;99.90;;;;;;4976459;28;87651;-73
2023/02/23 06:06:35;;;;;;;32.33;14.45;;;9.50;99.90;;;;;;4974317;28;88775;-73
2023/02/23 06:09:02;;;;;;;32.90;14.82;;;9.50;99.90;;;;;;4971873;28;87596;-71
2023/02/23 06:11:28;;;;;;;37.72;15.20;;;9.50;99.90;;;;;;4979367;28;86787;-71
2023/02/23 06:13:57;;;;;;;31.02;15.18;;;9.50;99.90;;;;;;4980702;28;87621;-72
2023/02/23 06:16:22;;;;;;;37.63;14.98;;;9.50;99.90;;;;;;4975835;28;87959;-70
2023/02/23 06:18:48;;;;;;;33.88;15.32;;;9.40;99.90;;;;;;4972282;28;90518;-73
2023/02/23 06:21:14;;;;;;;34.30;16.55;;;9.50;99.90;;;;;;4964848;28;87569;-73
2023/02/23 06:23:39;;;;;;;35.97;16.48;;;9.50;99.90;;;;;;4968310;28;88853;-73
2023/02/23 06:26:05;;;;;;;35.95;15.88;;;9.50;99.90;;;;;;4973806;28;87740;-72
2023/02/23 06:28:31;;;;;;;36.03;17.65;;;9.40;99.90;;;;;;4975760;28;87734;-73
2023/02/23 06:30:56;;;;;;;38.83;17.48;;;9.40;99.90;;;;;;4968627;28;88038;-73
2023/02/23 06:33:22;;;;;;;36.13;17.92;;;9.40;99.90;;;;;;4967870;28;89069;-73
2023/02/23 06:35:48;;;;;;;39.00;18.55;;;9.40;99.90;;;;;;4971364;28;88270;-73
2023/02/23 06:38:14;;;;;;;37.83;17.15;;;9.40;99.90;;;;;;4967446;28;87459;-71
2023/02/23 06:40:40;;;;;;;38.95;18.42;;;9.40;99.90;;;;;;4980056;28;87103;-71
2023/02/23 06:43:06;;;;;;;36.20;17.95;;;9.40;99.90;;;;;;4967352;28;89589;-72
2023/02/23 06:45:32;;;;;;;38.35;17.58;;;9.40;99.90;;;;;;4971322;28;88952;-71
2023/02/23 06:47:58;;;;;;;47.38;17.60;;;9.50;99.90;;;;;;4972501;28;88695;-74
2023/02/23 06:50:24;;;;;;;47.30;17.23;;;9.50;99.90;;;;;;4974056;28;87317;-73
2023/02/23 06:52:50;;;;;;;45.58;19.73;;;9.50;99.90;;;;;;4974325;28;87843;-74
2023/02/23 06:55:16;;;;;;;38.60;18.42;;;9.50;99.90;;;;;;4990998;28;87356;-73
2023/02/23 06:57:42;;;;;;;49.97;19.67;;;9.50;99.90;;;;;;4990356;28;87477;-73
2023/02/23 07:00:13;;;;;;;43.80;19.45;;;9.50;99.90;;;;;;4996555;28;86429;-73
2023/02/23 07:02:40;;;;;;;38.97;19.70;;;9.60;99.90;;;;;;4990977;28;88149;-73
2023/02/23 07:05:06;;;;;;;46.67;20.42;;;9.60;99.90;;;;;;4971293;28;88694;-73
2023/02/23 07:07:32;;;;;;;41.53;19.45;;;9.60;99.90;;;;;;4977487;28;89391;-73
2023/02/23 07:09:58;;;;;;;42.58;20.00;;;9.60;99.90;;;;;;4973705;28;87371;-73
2023/02/23 07:12:23;;;;;;;41.03;18.67;;;9.60;99.90;;;;;;4974809;28;88083;-73
2023/02/23 07:14:49;;;;;;;41.78;19.75;;;9.70;99.90;;;;;;4976365;28;87593;-73
2023/02/23 07:17:16;;;;;;;36.53;19.02;;;9.80;99.90;;;;;;4976465;28;87376;-73
2023/02/23 07:19:42;;;;;;;36.60;18.52;;;9.80;99.90;;;;;;4982295;28;87572;-73
2023/02/23 07:22:08;;;;;;;39.17;19.88;;;9.90;99.90;;;;;;4987168;28;88233;-73
2023/02/23 07:24:34;;;;;;;39.80;18.73;;;9.90;99.90;;;;;;4979341;28;87468;-73
2023/02/23 07:26:59;;;;;;;43.28;18.95;;;10.00;99.90;;;;;;4982868;28;87352;-73
2023/02/23 07:29:26;;;;;;;38.55;18.17;;;10.00;99.90;;;;;;4976635;28;87340;-73
2023/02/23 07:31:53;;;;;;;35.47;17.95;;;10.10;99.90;;;;;;4986232;28;88667;-73
2023/02/23 07:34:18;;;;;;;40.28;17.85;;;10.20;99.90;;;;;;4995604;28;87598;-73
2023/02/23 07:36:44;;;;;;;31.92;16.73;;;10.20;99.90;;;;;;4988145;28;87285;-72
2023/02/23 07:39:10;;;;;;;35.47;16.90;;;10.20;99.90;;;;;;4995961;28;87330;-73
2023/02/23 07:41:36;;;;;;;32.67;15.60;;;10.30;99.90;;;;;;4993133;28;88141;-73
2023/02/23 07:44:01;;;;;;;32.38;16.80;;;10.40;99.60;;;;;;4979256;28;87973;-73
2023/02/23 07:46:27;;;;;;;33.17;16.60;;;10.60;99.30;;;;;;4993005;28;87400;-72
2023/02/23 07:48:53;;;;;;;33.58;17.35;;;10.80;98.40;;;;;;4990676;28;86730;-73
2023/02/23 07:51:19;;;;;;;32.67;15.95;;;11.20;97.10;;;;;;4973286;28;88437;-71
2023/02/23 07:53:45;;;;;;;30.83;15.93;;;11.80;96.20;;;;;;4974632;28;88843;-73
2023/02/23 07:56:12;;;;;;;27.55;14.27;;;12.90;93.30;;;;;;4984886;28;88281;-73
2023/02/23 07:58:39;;;;;;;24.42;13.25;;;13.90;90.70;;;;;;4993218;28;87457;-73
2023/02/23 08:01:05;;;;;;;29.13;14.20;;;15.00;85.00;;;;;;4970287;28;91172;-73
2023/02/23 08:03:31;;;;;;;22.60;14.43;;;16.20;80.20;;;;;;4988768;28;90186;-73
2023/02/23 08:05:57;;;;;;;22.92;13.32;;;17.50;76.10;;;;;;4995903;28;87059;-73
2023/02/23 08:08:23;;;;;;;22.73;13.27;;;18.20;70.70;;;;;;4985963;28;87165;-73
2023/02/23 08:10:49;;;;;;;20.42;12.50;;;19.00;69.80;;;;;;4975445;28;88106;-73
2023/02/23 08:13:15;;;;;;;19.17;12.93;;;19.10;67.70;;;;;;4976489;28;87808;-73
2023/02/23 08:15:41;;;;;;;20.67;12.85;;;18.40;66.90;;;;;;4977358;28;88347;-73
2023/02/23 08:18:08;;;;;;;20.58;12.95;;;17.50;70.30;;;;;;4983817;28;87070;-73
2023/02/23 08:20:33;;;;;;;17.10;10.25;;;16.90;71.70;;;;;;4975582;28;88996;-73
2023/02/23 08:22:59;;;;;;;18.75;9.52;;;16.30;71.60;;;;;;4972401;28;88707;-73
2023/02/23 08:25:28;;;;;;;14.02;7.82;;;16.00;71.90;;;;;;4979113;28;88444;-73
2023/02/23 08:27:53;;;;;;;14.88;7.60;;;16.00;72.70;;;;;;4991709;28;87226;-73
2023/02/23 08:30:23;;;;;;;16.23;8.30;;;16.10;72.20;;;;;;4998322;28;87541;-73
2023/02/23 08:32:49;;;;;;;15.05;8.15;;;16.40;73.40;;;;;;4996721;28;88288;-73
2023/02/23 08:35:17;;;;;;;14.65;7.85;;;16.80;70.90;;;;;;4979401;28;87470;-73
2023/02/23 08:37:44;;;;;;;14.57;8.32;;;17.00;70.20;;;;;;4992749;28;86767;-73
2023/02/23 08:40:11;;;;;;;16.33;8.70;;;17.70;68.10;;;;;;4990314;28;88218;-73
2023/02/23 08:42:36;;;;;;;13.90;8.55;;;18.40;67.40;;;;;;4997785;28;88123;-73
2023/02/23 08:45:02;;;;;;;17.13;8.52;;;19.90;62.70;;;;;;4988530;28;88610;-73
2023/02/23 08:47:28;;;;;;;13.68;9.05;;;21.70;58.60;;;;;;4992520;28;87433;-75
2023/02/23 08:49:54;;;;;;;14.80;9.48;;;23.00;56.30;;;;;;4996134;28;87727;-73
2023/02/23 08:52:20;;;;;;;13.32;9.32;;;24.10;53.70;;;;;;4979321;28;87851;-73
2023/02/23 08:54:47;;;;;;;15.88;10.38;;;24.50;51.40;;;;;;4991756;28;87145;-73
2023/02/23 08:57:12;;;;;;;13.63;9.07;;;24.10;50.50;;;;;;4979296;28;87392;-73
2023/02/23 08:59:40;;;;;;;15.00;10.13;;;23.30;52.10;;;;;;4997517;28;87590;-73
2023/02/23 09:02:09;;;;;;;13.27;9.90;;;22.60;52.40;;;;;;4993212;28;87209;-74
2023/02/23 09:04:35;;;;;;;15.77;9.95;;;23.30;52.60;;;;;;4999748;28;87578;-73
2023/02/23 09:07:01;;;;;;;13.70;9.75;;;23.70;51.70;;;;;;4987709;28;88969;-73
2023/02/23 09:09:27;;;;;;;14.98;11.48;;;23.00;51.30;;;;;;4998805;28;89038;-73
2023/02/23 09:11:53;;;;;;;17.60;11.25;;;21.40;54.40;;;;;;4996797;28;88340;-73
2023/02/23 09:14:19;;;;;;;17.73;11.82;;;20.30;57.70;;;;;;4998046;28;87255;-73
2023/02/23 09:16:46;;;;;;;18.30;11.65;;;19.40;59.70;;;;;;4984777;28;87207;-73
2023/02/23 09:19:12;;;;;;;16.70;10.98;;;19.30;59.90;;;;;;4996981;28;88570;-73
2023/02/23 09:21:37;;;;;;;19.25;11.02;;;19.90;59.80;;;;;;4972930;28;87969;-73
2023/02/23 09:24:03;;;;;;;15.55;10.48;;;20.60;58.00;;;;;;4983197;28;87207;-73
2023/02/23 09:26:30;;;;;;;15.90;10.85;;;19.80;58.50;;;;;;4985018;28;86673;-73
2023/02/23 09:28:58;;;;;;;16.90;9.73;;;18.90;60.70;;;;;;4998105;28;88661;-72
2023/02/23 09:31:24;;;;;;;18.02;10.30;;;18.10;62.30;;;;;;4985320;28;87303;-73
2023/02/23 09:33:50;;;;;;;16.73;9.93;;;17.60;64.30;;;;;;4987799;28;88274;-73
2023/02/23 09:36:19;;;;;;;19.50;9.88;;;17.60;63.90;;;;;;4986618;28;87215;-72
2023/02/23 09:38:48;;;;;;;15.18;9.18;;;17.80;63.90;;;;;;4978495;28;87130;-73
2023/02/23 09:41:34;;;;;;;16.90;9.50;;;19.80;60.30;;;;;;4981291;28;87353;-73
2023/02/23 09:44:00;;;;;;;13.68;9.00;;;21.00;57.30;;;;;;4980640;28;87274;-73
2023/02/23 09:46:38;;;;;;;15.85;9.43;;;21.60;55.60;;;;;;4978844;28;87080;-73
2023/02/23 09:49:10;;;;;;;17.48;8.60;;;23.20;52.50;;;;;;4978502;28;88191;-73
2023/02/23 09:51:40;;;;;;;11.52;7.90;;;24.30;49.70;;;;;;4979517;28;87783;-73
2023/02/23 09:54:10;;;;;;;13.13;8.20;;;25.00;47.90;;;;;;4983656;28;87141;-73
2023/02/23 09:56:42;;;;;;;10.77;7.53;;;25.30;45.40;;;;;;4988129;28;87187;-73
2023/02/23 09:59:14;;;;;;;9.55;6.80;;;23.30;47.60;;;;;;4983910;28;89155;-73
2023/02/23 10:01:48;;;;;;;11.57;7.28;;;21.20;52.10;;;;;;4978206;28;87594;-72
2023/02/23 10:04:29;;;;;;;11.82;6.00;;;19.60;55.30;;;;;;4982498;28;87518;-72
2023/02/23 10:07:19;;;;;;;10.40;6.35;;;18.80;56.40;;;;;;4984856;28;87021;-72
2023/02/23 10:09:51;;;;;;;10.82;5.72;;;18.10;57.70;;;;;;4977988;28;87476;-72
2023/02/23 10:12:35;;;;;;;9.75;5.85;;;17.90;60.40;;;;;;4979726;28;89301;-72
2023/02/23 10:15:14;;;;;;;11.68;6.78;;;18.60;57.90;;;;;;4982265;28;87018;-72
2023/02/23 10:18:04;;;;;;;11.45;6.50;;;18.70;58.10;;;;;;4978882;28;86665;-72
2023/02/23 10:20:42;;;;;;;14.13;6.80;;;19.50;57.30;;;;;;4990327;28;87620;-73
2023/02/23 10:23:14;;;;;;;10.90;7.03;;;21.10;55.80;;;;;;4991640;28;87801;-73
2023/02/23 10:25:45;;;;;;;11.13;6.80;;;22.60;50.70;;;;;;4997552;28;88367;-72
2023/02/23 10:28:20;;;;;;;11.88;7.72;;;23.30;50.60;;;;;;4998791;28;87386;-72
2023/02/23 10:30:48;;;;;;;14.23;8.18;;;24.20;48.50;;;;;;4992355;28;88000;-72
2023/02/23 10:33:27;;;;;;;14.05;7.75;;;25.20;47.20;;;;;;4988678;28;87909;-73
2023/02/23 10:36:04;;;;;;;10.63;7.85;;;26.10;45.00;;;;;;4975505;28;87205;-72
2023/02/23 10:38:30;;;;;;;10.98;7.57;;;24.60;46.10;;;;;;4978001;28;88997;-72
2023/02/23 10:40:56;;;;;;;11.63;7.32;;;23.00;48.70;;;;;;4982043;28;88786;-73
2023/02/23 10:43:22;;;;;;;15.65;7.85;;;21.90;50.50;;;;;;4977798;28;88175;-73
2023/02/23 10:45:52;;;;;;;12.55;7.53;;;21.00;53.40;;;;;;4976692;28;87355;-71
2023/02/23 10:48:23;;;;;;;12.77;8.02;;;20.80;54.60;;;;;;4977493;28;87516;-73
2023/02/23 10:50:52;;;;;;;14.02;8.25;;;21.00;54.10;;;;;;4981115;28;90882;-73
2023/02/23 10:53:34;;;;;;;12.00;7.75;;;20.40;53.40;;;;;;4975367;28;88856;-73
2023/02/23 10:56:13;;;;;;;13.85;7.10;;;19.60;56.30;;;;;;4976633;28;87322;-72
2023/02/23 10:58:48;;;;;;;10.95;7.25;;;19.00;57.50;;;;;;4977333;28;86996;-72
2023/02/23 11:01:16;;;;;;;15.15;8.57;;;18.30;58.70;;;;;;4981756;28;87912;-73
2023/02/23 11:03:46;;;;;;;15.75;7.85;;;17.90;59.20;;;;;;4986036;28;87499;-73
2023/02/23 11:06:34;;;;;;;13.45;8.10;;;17.40;60.80;;;;;;4967237;28;87462;-72
2023/02/23 11:09:15;;;;;;;13.02;7.28;;;17.20;61.70;;;;;;4984619;28;86763;-72
2023/02/23 11:12:15;;;;;;;12.75;7.45;;;17.30;62.40;;;;;;4978819;28;88210;-72
2023/02/23 11:14:41;;;;;;;12.05;7.13;;;17.50;61.60;;;;;;4967410;28;88105;-72
2023/02/23 11:17:28;;;;;;;12.13;7.50;;;17.50;61.20;;;;;;4978687;28;88565;-72
2023/02/23 11:20:38;;;;;;;12.00;7.28;;;17.30;61.40;;;;;;4964519;28;89962;-72
2023/02/23 11:23:40;;;;;;;14.15;7.65;;;16.90;62.50;;;;;;4971143;28;88231;-72
2023/02/23 11:26:27;;;;;;;13.55;7.15;;;16.70;64.30;;;;;;4967352;28;87853;-72
2023/02/23 11:29:01;;;;;;;14.43;7.13;;;16.60;63.60;;;;;;4963166;28;87503;-72
2023/02/23 11:31:34;;;;;;;14.15;7.13;;;16.30;65.00;;;;;;4979078;28;87956;-72
2023/02/23 11:34:03;;;;;;;16.90;7.63;;;16.30;65.10;;;;;;4983322;28;88614;-73
2023/02/23 11:36:35;;;;;;;15.82;7.40;;;16.20;65.70;;;;;;4993334;28;87625;-72
2023/02/23 11:39:17;;;;;;;15.60;8.00;;;16.30;66.40;;;;;;4972451;28;87347;-72
2023/02/23 11:41:43;;;;;;;13.60;7.38;;;16.50;65.40;;;;;;4967571;28;88867;-72
2023/02/23 11:44:20;;;;;;;15.18;8.20;;;16.40;65.90;;;;;;4974074;28;89782;-72
2023/02/23 11:46:46;;;;;;;14.70;8.52;;;16.30;65.90;;;;;;4982752;28;90697;-72
2023/02/23 11:49:20;;;;;;;17.60;7.95;;;16.50;66.80;;;;;;4970897;28;87601;-73
2023/02/23 11:51:49;;;;;;;10.63;5.05;;;16.60;66.20;;;;;;4960586;28;88581;-72
2023/02/23 11:54:26;;;;;;;10.05;5.18;;;16.60;66.20;;;;;;4965941;28;87859;-71
2023/02/23 11:56:54;;;;;;;9.00;4.65;;;16.10;67.50;;;;;;4972582;28;89375;-74
2023/02/23 11:59:29;;;;;;;11.30;4.78;;;16.20;67.10;;;;;;4968582;28;87509;-73
2023/02/23 12:02:21;;;;;;;10.90;5.05;;;16.40;66.90;;;;;;4968771;28;87360;-74
2023/02/23 12:04:50;;;;;;;12.85;4.65;;;16.60;66.90;;;;;;4979156;28;88241;-73
2023/02/23 12:07:28;;;;;;;11.63;4.53;;;16.70;67.20;;;;;;4977371;28;88289;-72
2023/02/23 12:10:09;;;;;;;9.75;4.50;;;16.70;67.80;;;;;;4973676;28;88272;-73
2023/02/23 12:12:48;;;;;;;11.63;4.53;;;16.70;66.70;;;;;;4986591;28;87843;-72
2023/02/23 12:15:35;;;;;;;12.82;5.00;;;16.80;66.10;;;;;;4980774;28;87994;-73
2023/02/23 12:18:15;;;;;;;9.70;4.97;;;16.80;66.40;;;;;;4990075;28;87532;-73
2023/02/23 12:20:47;;;;;;;10.35;4.80;;;16.80;65.80;;;;;;4982887;28;87467;-73
2023/02/23 12:23:17;;;;;;;9.55;5.07;;;16.60;65.70;;;;;;4976991;28;87485;-73
2023/02/23 12:25:47;;;;;;;12.40;5.20;;;16.40;66.20;;;;;;4981594;28;87731;-73
2023/02/23 12:28:26;;;;;;;10.98;5.07;;;16.50;66.40;;;;;;4984664;28;87356;-73
2023/02/23 12:31:12;;;;;;;9.23;5.00;;;16.60;66.20;;;;;;4990511;28;87895;-73
2023/02/23 12:33:45;;;;;;;10.52;5.20;;;16.70;66.20;;;;;;4982593;28;87951;-73
2023/02/23 12:36:25;;;;;;;10.90;5.00;;;17.00;65.50;;;;;;4979546;28;89501;-73
2023/02/23 12:38:59;;;;;;;11.10;4.55;;;17.20;64.50;;;;;;4989629;28;89606;-73
2023/02/23 12:41:36;;;;;;;11.75;5.13;;;17.40;65.20;;;;;;4984672;28;87218;-73
2023/02/23 12:44:18;;;;;;;10.77;5.43;;;17.40;62.70;;;;;;4990535;28;88562;-73
2023/02/23 12:46:51;;;;;;;9.48;4.65;;;17.20;63.10;;;;;;4983273;28;88825;-73
2023/02/23 12:49:47;;;;;;;9.52;4.90;;;17.20;64.80;;;;;;4986688;28;87796;-73
2023/02/23 12:52:26;;;;;;;12.48;4.70;;;17.10;65.00;;;;;;4983243;28;87884;-72
2023/02/23 12:54:52;;;;;;;13.55;5.28;;;17.00;64.10;;;;;;4991150;28;86492;-73
2023/02/23 12:57:37;;;;;;;9.82;4.22;;;17.00;65.40;;;;;;4973290;28;87765;-73
2023/02/23 13:00:30;;;;;;;9.77;4.90;;;17.00;64.30;;;;;;4977354;28;88773;-73
2023/02/23 13:03:20;;;;;;;11.38;4.68;;;17.00;65.50;;;;;;4977509;28;88730;-73
2023/02/23 13:06:01;;;;;;;10.23;4.93;;;16.90;63.60;;;;;;4990043;28;87563;-72
2023/02/23 13:08:52;;;;;;;11.80;5.38;;;16.80;63.70;;;;;;4984321;28;88207;-72
2023/02/23 13:11:52;;;;;;;13.13;4.93;;;16.70;63.90;;;;;;4978220;28;87542;-72
2023/02/23 13:14:28;;;;;;;7.82;4.40;;;16.70;64.60;;;;;;4979773;28;87443;-73
2023/02/23 13:17:01;;;;;;;8.45;3.92;;;16.50;63.90;;;;;;4979040;28;87159;-73
2023/02/23 13:19:41;;;;;;;9.30;4.75;;;16.40;65.30;;;;;;4978711;28;88099;-73
2023/02/23 13:22:25;;;;;;;9.40;4.28;;;16.40;64.40;;;;;;4972892;28;87009;-73
2023/02/23 13:24:54;;;;;;;10.60;3.47;;;16.30;65.60;;;;;;4981930;28;87294;-72
2023/02/23 13:27:27;;;;;;;7.70;3.80;;;16.40;65.90;;;;;;4978778;28;87124;-73
2023/02/23 13:29:55;;;;;;;11.40;3.55;;;16.40;63.70;;;;;;4978759;28;88617;-72
2023/02/23 13:32:31;;;;;;;9.50;4.57;;;16.30;62.80;;;;;;4991426;28;88870;-73
2023/02/23 13:35:03;;;;;;;11.98;4.72;;;16.30;65.70;;;;;;4993259;28;87124;-73
2023/02/23 13:37:44;;;;;;;8.93;4.55;;;16.30;67.70;;;;;;4979818;28;87476;-72
2023/02/23 13:40:31;;;;;;;9.07;4.60;;;16.20;68.60;;;;;;4983818;28;87666;-72
2023/02/23 13:43:16;;;;;;;9.73;4.60;;;16.00;68.50;;;;;;4978489;28;88196;-73
2023/02/23 13:45:50;;;;;;;14.68;5.53;;;16.00;68.50;;;;;;4978978;28;87818;-73
2023/02/23 13:48:36;;;;;;;8.43;4.30;;;16.00;68.40;;;;;;4988935;28;86548;-73
2023/02/23 13:51:12;;;;;;;8.75;4.28;;;16.10;69.30;;;;;;4975695;28;87845;-72
2023/02/23 13:53:42;;;;;;;10.30;4.60;;;16.10;68.00;;;;;;4979373;28;88474;-73
2023/02/23 13:56:21;;;;;;;10.25;4.30;;;16.10;67.70;;;;;;4977530;28;88628;-72
2023/02/23 13:58:52;;;;;;;7.15;3.08;;;16.00;67.70;;;;;;4977590;28;87408;-73
2023/02/23 14:01:22;;;;;;;8.00;4.15;;;15.90;65.60;;;;;;4966479;28;88359;-73
2023/02/23 14:03:56;;;;;;;8.65;3.72;;;15.80;67.40;;;;;;4978609;28;87789;-73
2023/02/23 14:06:25;;;;;;;11.20;3.40;;;15.70;66.70;;;;;;4977227;28;89040;-72
2023/02/23 14:09:17;;;;;;;10.05;3.60;;;15.60;66.90;;;;;;4981347;28;87285;-72
2023/02/23 14:11:47;;;;;;;7.50;3.10;;;15.50;66.70;;;;;;4998692;28;90069;-73
2023/02/23 14:14:29;;;;;;;7.90;2.60;;;15.50;66.70;;;;;;4984345;28;87030;-73
2023/02/23 14:17:13;;;;;;;6.93;1.73;;;15.50;65.50;;;;;;4978598;28;87363;-73